Terminal Aerodrome Forecast
Issued by NWS Twin Cities, MN

Home | Current Version | Previous Version | Text Only | Print | Product List | Glossary Off
Versions: 1 2 3 4 5 6 7 8 9 10 11 12 13 14 15 16 17 18 19 20 21 22 23 24

000
FTUS43 KMPX 211100
TAFEAU
TAF
KEAU 211130Z 2112/2212 11008KT P6SM -SHRA SCT025 OVC050
     FM211530 15010KT P6SM SCT025 BKN040
     FM212100 18007KT P6SM SCT040
     FM220500 VRB03KT 4SM BR SCT003
     FM220800 VRB03KT 1/4SM FG VV001=

USA.gov is the U.S. government's official web portal to all federal, state and local government web resources and services.